Time;durP1;ratioP1;P1;durP2;ratioP2;P2;SDS_P1;SDS_P2;PMS_P1;PMS_P2;Temp;Humidity;BMP_temperature;BMP_pressure;BME280_temperature;BME280_humidity;BME280_pressure;Samples;Min_cycle;Max_cycle;Signal;HPM_P1;HPM_P2
2022/07/23 00:01:38;;;;;;;5.73;5.33;;;24.70;99.90;;;;;;5067053;28;20641;-84
2022/07/23 00:04:06;;;;;;;5.70;5.30;;;24.70;99.90;;;;;;5067125;28;20701;-84
2022/07/23 00:06:33;;;;;;;6.70;5.80;;;24.70;99.90;;;;;;5067765;28;20632;-84
2022/07/23 00:09:00;;;;;;;5.53;5.23;;;24.60;99.90;;;;;;5067033;28;20623;-84
2022/07/23 00:11:27;;;;;;;6.00;5.57;;;24.60;99.90;;;;;;5066328;28;20686;-84
2022/07/23 00:13:54;;;;;;;5.27;4.77;;;24.60;99.90;;;;;;5066615;28;20625;-85
2022/07/23 00:16:21;;;;;;;4.90;4.57;;;24.60;99.90;;;;;;5066658;28;20691;-84
2022/07/23 00:18:48;;;;;;;5.27;4.93;;;24.60;99.90;;;;;;5067322;28;20698;-85
2022/07/23 00:21:17;;;;;;;4.83;4.40;;;24.50;99.90;;;;;;5066288;28;20667;-85
2022/07/23 00:23:43;;;;;;;4.73;4.33;;;24.50;99.90;;;;;;5066273;28;20636;-85
2022/07/23 00:26:10;;;;;;;4.40;4.10;;;24.50;99.70;;;;;;5063319;28;20639;-85
2022/07/23 00:28:37;;;;;;;3.70;3.40;;;24.50;98.70;;;;;;5065712;28;20633;-84
2022/07/23 00:31:04;;;;;;;4.73;3.90;;;24.50;98.30;;;;;;5063907;28;21183;-85
2022/07/23 00:33:31;;;;;;;5.43;3.40;;;24.50;98.00;;;;;;5065287;28;21771;-85
2022/07/23 00:35:58;;;;;;;4.53;4.03;;;24.50;96.60;;;;;;5067362;28;21094;-85
2022/07/23 00:38:27;;;;;;;5.70;3.50;;;24.50;95.80;;;;;;5066656;28;21301;-85
2022/07/23 00:40:54;;;;;;;5.33;3.67;;;24.50;96.10;;;;;;5066314;28;20652;-85
2022/07/23 00:43:22;;;;;;;3.57;3.37;;;24.50;96.30;;;;;;5062904;28;20637;-85
2022/07/23 00:45:50;;;;;;;3.63;3.40;;;24.50;97.20;;;;;;5061328;28;20666;-85
2022/07/23 00:48:17;;;;;;;4.47;4.07;;;24.50;98.40;;;;;;5066401;28;20644;-85
2022/07/23 00:50:45;;;;;;;3.83;3.63;;;24.40;98.30;;;;;;5064988;28;20695;-85
2022/07/23 00:53:12;;;;;;;4.30;4.00;;;24.40;99.00;;;;;;5065759;28;20640;-85
2022/07/23 00:55:40;;;;;;;4.53;3.83;;;24.40;99.10;;;;;;5064871;28;21444;-85
2022/07/23 00:58:08;;;;;;;4.17;3.90;;;24.40;99.00;;;;;;5066219;28;20672;-85
2022/07/23 01:00:35;;;;;;;4.30;4.00;;;24.40;99.00;;;;;;5067390;28;20653;-85
2022/07/23 01:03:01;;;;;;;3.70;3.40;;;24.30;99.20;;;;;;5066079;28;20640;-84
2022/07/23 01:05:28;;;;;;;4.43;4.13;;;24.30;99.60;;;;;;5066702;28;20641;-84
2022/07/23 01:07:55;;;;;;;4.57;4.27;;;24.30;99.70;;;;;;5066187;28;20707;-85
2022/07/23 01:10:34;;;;;;;3.80;3.60;;;24.30;99.90;;;;;;5066887;28;20661;-85
2022/07/23 01:13:04;;;;;;;4.43;4.03;;;24.30;99.90;;;;;;5064628;28;20613;-84
2022/07/23 01:15:32;;;;;;;3.80;3.60;;;24.20;99.90;;;;;;5066558;28;20738;-84
2022/07/23 01:17:59;;;;;;;5.37;3.63;;;24.20;99.90;;;;;;5064085;28;20679;-84
2022/07/23 01:20:26;;;;;;;3.63;3.43;;;24.10;99.90;;;;;;5066314;28;20656;-84
2022/07/23 01:22:54;;;;;;;3.77;3.47;;;24.10;99.90;;;;;;5066456;28;20627;-84
2022/07/23 01:25:21;;;;;;;3.70;3.40;;;24.10;99.90;;;;;;5062318;28;20629;-84
2022/07/23 01:27:48;;;;;;;4.43;3.13;;;24.10;99.90;;;;;;5066297;28;20639;-85
2022/07/23 01:30:16;;;;;;;3.83;3.53;;;24.00;99.90;;;;;;5066675;28;21265;-84
2022/07/23 01:32:43;;;;;;;4.20;3.90;;;23.90;99.90;;;;;;5062293;28;21118;-84
2022/07/23 01:35:10;;;;;;;3.10;2.90;;;23.90;99.90;;;;;;5064512;28;20731;-84
2022/07/23 01:37:37;;;;;;;3.10;3.00;;;23.90;99.90;;;;;;5064766;28;20653;-84
2022/07/23 01:40:07;;;;;;;4.23;3.93;;;24.00;99.90;;;;;;5066845;28;20857;-84
2022/07/23 01:42:33;;;;;;;4.00;3.27;;;24.00;99.90;;;;;;5064470;28;20621;-84
2022/07/23 01:45:00;;;;;;;3.33;3.00;;;23.90;99.90;;;;;;5064966;28;20632;-84
2022/07/23 01:47:27;;;;;;;4.30;4.00;;;23.80;99.90;;;;;;5065660;28;21034;-84
2022/07/23 01:49:54;;;;;;;3.30;3.10;;;23.80;99.90;;;;;;5064665;28;20647;-84
2022/07/23 01:52:21;;;;;;;4.30;3.90;;;23.70;99.90;;;;;;5060803;28;20865;-84
2022/07/23 01:54:49;;;;;;;4.23;3.60;;;23.80;99.90;;;;;;5066259;28;20643;-84
2022/07/23 01:57:17;;;;;;;3.87;3.57;;;23.70;99.90;;;;;;5066213;28;20624;-84
2022/07/23 01:59:44;;;;;;;3.87;3.67;;;23.80;99.90;;;;;;5066360;28;20703;-85
2022/07/23 02:02:11;;;;;;;4.40;4.10;;;23.70;99.90;;;;;;5065950;28;20645;-84
2022/07/23 02:04:38;;;;;;;4.43;4.03;;;23.70;99.90;;;;;;5064376;28;20629;-85
2022/07/23 02:07:05;;;;;;;4.23;3.93;;;23.70;99.90;;;;;;5061646;28;20624;-85
2022/07/23 02:09:32;;;;;;;4.53;4.20;;;23.60;99.90;;;;;;5069133;28;20826;-85
2022/07/23 02:11:59;;;;;;;4.40;3.80;;;23.50;99.90;;;;;;5073116;28;20636;-84
2022/07/23 02:14:28;;;;;;;4.10;3.80;;;23.40;99.90;;;;;;5068838;28;20624;-84
2022/07/23 02:16:54;;;;;;;4.27;3.97;;;23.40;99.90;;;;;;5065456;28;20637;-84
2022/07/23 02:19:21;;;;;;;4.30;4.00;;;23.30;99.90;;;;;;5069544;28;20687;-84
2022/07/23 02:21:48;;;;;;;4.23;3.97;;;23.30;99.90;;;;;;5069197;28;20643;-84
2022/07/23 02:24:15;;;;;;;4.57;4.17;;;23.20;99.90;;;;;;5061866;28;20995;-84
2022/07/23 02:26:43;;;;;;;5.10;4.00;;;23.20;99.90;;;;;;5068496;28;21187;-84
2022/07/23 02:29:10;;;;;;;4.60;4.20;;;23.20;99.90;;;;;;5069516;28;20621;-85
2022/07/23 02:31:38;;;;;;;4.20;3.90;;;23.20;99.90;;;;;;5069978;28;20619;-85
2022/07/23 02:34:05;;;;;;;5.90;4.90;;;23.20;99.90;;;;;;5064909;28;20636;-85
2022/07/23 02:36:32;;;;;;;4.77;4.37;;;23.20;99.90;;;;;;5064115;28;20645;-84
2022/07/23 02:38:59;;;;;;;3.87;3.57;;;23.10;99.90;;;;;;5069226;28;20671;-85
2022/07/23 02:41:27;;;;;;;4.40;4.10;;;23.00;99.90;;;;;;5069359;28;20760;-85
2022/07/23 02:43:54;;;;;;;4.20;4.00;;;23.00;99.90;;;;;;5068597;28;20675;-85
2022/07/23 02:46:20;;;;;;;4.07;3.47;;;23.00;99.90;;;;;;5068230;28;20631;-85
2022/07/23 02:48:48;;;;;;;3.77;3.57;;;23.00;99.90;;;;;;5066993;28;20624;-85
2022/07/23 02:51:15;;;;;;;3.87;3.67;;;23.00;99.90;;;;;;5064074;28;20652;-85
2022/07/23 02:53:42;;;;;;;4.83;4.43;;;23.00;99.90;;;;;;5069253;28;20999;-85
2022/07/23 02:56:09;;;;;;;4.47;4.17;;;23.00;99.90;;;;;;5069427;28;20628;-85
2022/07/23 02:58:36;;;;;;;4.37;4.10;;;23.00;99.90;;;;;;5068902;28;21442;-85
2022/07/23 03:01:03;;;;;;;5.83;5.30;;;22.90;99.90;;;;;;5068868;28;21500;-85
2022/07/23 03:03:30;;;;;;;4.40;4.10;;;22.90;99.90;;;;;;5064386;28;20632;-84
2022/07/23 03:05:58;;;;;;;5.10;4.70;;;22.90;99.90;;;;;;5068321;28;20628;-84
2022/07/23 03:08:25;;;;;;;4.50;4.20;;;22.90;99.90;;;;;;5068644;28;21000;-85
2022/07/23 03:10:51;;;;;;;4.90;4.60;;;22.90;99.90;;;;;;5067818;28;20657;-85
2022/07/23 03:13:18;;;;;;;5.40;5.10;;;22.80;99.90;;;;;;5068528;28;20624;-85
2022/07/23 03:15:45;;;;;;;4.47;4.07;;;22.80;99.90;;;;;;5065160;28;20609;-85
2022/07/23 03:18:12;;;;;;;4.80;4.50;;;22.80;99.90;;;;;;5067957;28;20665;-85
2022/07/23 03:20:39;;;;;;;4.10;3.80;;;22.70;99.90;;;;;;5065419;28;20653;-85
2022/07/23 03:23:07;;;;;;;4.30;4.00;;;22.70;99.90;;;;;;5067610;28;21008;-85
2022/07/23 03:25:34;;;;;;;4.43;4.03;;;22.60;99.90;;;;;;5066292;28;20963;-85
2022/07/23 03:28:01;;;;;;;5.13;4.73;;;22.50;99.90;;;;;;5068274;28;20644;-85
2022/07/23 03:30:27;;;;;;;5.20;4.80;;;22.50;99.90;;;;;;5065973;28;20664;-85
2022/07/23 03:32:54;;;;;;;4.73;4.33;;;22.50;99.90;;;;;;5063244;28;20621;-84
2022/07/23 03:35:21;;;;;;;5.30;4.80;;;22.40;99.90;;;;;;5066849;28;20942;-85
2022/07/23 03:37:48;;;;;;;4.50;4.20;;;22.30;99.90;;;;;;5062630;28;20613;-85
2022/07/23 03:40:16;;;;;;;4.80;4.50;;;22.30;99.90;;;;;;5066621;28;21348;-85
2022/07/23 03:42:43;;;;;;;5.17;4.10;;;22.20;99.90;;;;;;5067038;28;20632;-85
2022/07/23 03:45:10;;;;;;;4.70;4.30;;;22.20;99.90;;;;;;5067607;28;21009;-85
2022/07/23 03:47:38;;;;;;;4.10;3.80;;;22.10;99.90;;;;;;5068433;28;20659;-85
2022/07/23 03:50:06;;;;;;;6.40;4.07;;;22.10;99.90;;;;;;5067753;28;20702;-85
2022/07/23 03:52:33;;;;;;;6.30;5.70;;;22.00;99.90;;;;;;5067315;28;20712;-85
2022/07/23 03:54:59;;;;;;;4.60;4.30;;;22.00;99.90;;;;;;5067960;28;20662;-84
2022/07/23 03:57:28;;;;;;;5.00;4.40;;;21.90;99.90;;;;;;5066410;28;20768;-84
2022/07/23 03:59:54;;;;;;;4.80;4.40;;;21.80;99.90;;;;;;5067782;28;20621;-85
2022/07/23 04:02:21;;;;;;;5.40;5.00;;;21.80;99.90;;;;;;5066225;28;20633;-84
2022/07/23 04:04:48;;;;;;;5.10;4.40;;;21.70;99.90;;;;;;5065501;28;20625;-85
2022/07/23 04:07:17;;;;;;;4.13;3.73;;;21.70;99.90;;;;;;5065191;28;20722;-84
2022/07/23 04:09:44;;;;;;;4.30;4.00;;;21.70;99.90;;;;;;5065074;28;20664;-84
2022/07/23 04:12:11;;;;;;;5.40;4.57;;;21.60;99.90;;;;;;5064551;28;20633;-85
2022/07/23 04:14:39;;;;;;;5.43;4.93;;;21.60;99.90;;;;;;5065458;28;20935;-84
2022/07/23 04:17:06;;;;;;;4.97;4.57;;;21.60;99.90;;;;;;5065513;28;20656;-85
2022/07/23 04:19:32;;;;;;;5.33;4.93;;;21.50;99.90;;;;;;5060338;28;20625;-85
2022/07/23 04:21:59;;;;;;;4.27;3.97;;;21.50;99.90;;;;;;5064354;28;20665;-84
2022/07/23 04:24:26;;;;;;;4.60;4.30;;;21.50;99.90;;;;;;5064494;28;20631;-85
2022/07/23 04:26:53;;;;;;;4.60;4.30;;;21.50;99.90;;;;;;5065403;28;20658;-84
2022/07/23 04:29:20;;;;;;;4.90;4.60;;;21.50;99.90;;;;;;5065506;28;20661;-84
2022/07/23 04:31:48;;;;;;;5.73;5.33;;;21.50;99.90;;;;;;5066608;28;20653;-85
2022/07/23 04:34:15;;;;;;;4.80;4.37;;;21.50;99.90;;;;;;5065917;28;20652;-84
2022/07/23 04:36:42;;;;;;;4.20;3.90;;;21.60;99.90;;;;;;5065674;28;20648;-85
2022/07/23 04:39:14;;;;;;;4.40;4.10;;;21.60;99.90;;;;;;5065081;28;21164;-85
2022/07/23 04:41:41;;;;;;;6.27;4.83;;;21.70;99.90;;;;;;5048657;28;20748;-84
2022/07/23 04:44:08;;;;;;;4.93;4.63;;;21.70;99.90;;;;;;5065301;28;20649;-84
2022/07/23 04:46:35;;;;;;;5.13;4.83;;;21.70;99.90;;;;;;5066292;28;20621;-85
2022/07/23 04:49:03;;;;;;;6.60;6.10;;;21.70;99.90;;;;;;5066827;28;20683;-85
2022/07/23 04:51:30;;;;;;;5.40;4.90;;;21.80;99.90;;;;;;5066160;28;20653;-84
2022/07/23 04:53:57;;;;;;;6.20;5.70;;;21.90;99.90;;;;;;5063198;28;20686;-84
2022/07/23 04:56:23;;;;;;;6.90;5.37;;;21.80;99.90;;;;;;5063192;28;20665;-85
2022/07/23 04:58:50;;;;;;;5.70;5.30;;;21.80;99.90;;;;;;5061167;28;20644;-85
2022/07/23 05:01:17;;;;;;;5.50;5.10;;;21.80;99.90;;;;;;5057949;28;20662;-85
2022/07/23 05:03:44;;;;;;;5.90;5.50;;;21.80;99.90;;;;;;5067847;28;20707;-85
2022/07/23 05:06:12;;;;;;;5.93;5.43;;;21.90;99.90;;;;;;5068041;28;20640;-84
2022/07/23 05:08:39;;;;;;;5.33;4.47;;;21.80;99.90;;;;;;5062723;28;20692;-85
2022/07/23 05:11:06;;;;;;;6.33;5.83;;;21.90;99.90;;;;;;5065625;28;20764;-84
2022/07/23 05:13:33;;;;;;;5.37;5.07;;;22.00;99.90;;;;;;5064940;28;21017;-84
2022/07/23 05:15:59;;;;;;;4.83;4.50;;;22.10;99.90;;;;;;5059890;28;20649;-84
2022/07/23 05:18:26;;;;;;;6.10;5.60;;;22.10;99.90;;;;;;5065815;28;20667;-84
2022/07/23 05:20:53;;;;;;;5.17;4.73;;;22.20;99.90;;;;;;5064831;28;20676;-84
2022/07/23 05:23:21;;;;;;;5.70;5.20;;;22.30;99.90;;;;;;5059316;28;20953;-85
2022/07/23 05:25:49;;;;;;;5.83;5.30;;;22.30;99.90;;;;;;5060676;28;20660;-84
2022/07/23 05:28:16;;;;;;;6.13;5.63;;;22.50;99.90;;;;;;5060849;28;20665;-84
2022/07/23 05:30:43;;;;;;;5.90;5.50;;;22.50;99.90;;;;;;5062438;28;20684;-84
2022/07/23 05:33:10;;;;;;;6.60;6.10;;;22.60;99.90;;;;;;5060046;28;20657;-84
2022/07/23 05:35:37;;;;;;;6.40;6.00;;;22.70;99.90;;;;;;5063988;28;20725;-85
2022/07/23 05:38:04;;;;;;;5.10;4.70;;;22.80;99.90;;;;;;5057974;28;20645;-85
2022/07/23 05:40:33;;;;;;;5.70;5.40;;;22.80;99.90;;;;;;5060892;28;20621;-84
2022/07/23 05:43:00;;;;;;;5.70;5.30;;;22.80;99.90;;;;;;5062325;28;20639;-85
2022/07/23 05:45:27;;;;;;;5.40;5.10;;;22.80;99.90;;;;;;5060456;28;20663;-84
2022/07/23 05:47:54;;;;;;;6.80;6.30;;;22.90;99.90;;;;;;5063201;28;20655;-85
2022/07/23 05:50:21;;;;;;;6.07;5.67;;;23.00;99.90;;;;;;5062059;28;20665;-84
2022/07/23 05:52:48;;;;;;;6.40;5.80;;;23.00;99.90;;;;;;5058909;28;20655;-85
2022/07/23 05:55:15;;;;;;;6.40;5.80;;;23.00;99.90;;;;;;5063950;28;20668;-85
2022/07/23 05:57:43;;;;;;;6.23;5.83;;;23.10;99.90;;;;;;5065937;28;20653;-85
2022/07/23 06:00:12;;;;;;;6.43;5.93;;;23.10;99.90;;;;;;5066275;28;20625;-85
2022/07/23 06:02:39;;;;;;;7.37;6.23;;;23.10;99.90;;;;;;5061763;28;21273;-84
2022/07/23 06:05:08;;;;;;;6.57;5.97;;;23.10;99.90;;;;;;5061530;28;20727;-85
2022/07/23 06:07:35;;;;;;;5.37;4.97;;;23.10;99.90;;;;;;5067269;28;20616;-84
2022/07/23 06:10:02;;;;;;;6.73;5.93;;;23.20;99.90;;;;;;5067026;28;20660;-84
2022/07/23 06:12:28;;;;;;;6.87;6.17;;;23.30;99.90;;;;;;5066903;28;20661;-85
2022/07/23 06:14:57;;;;;;;7.30;5.27;;;23.30;99.90;;;;;;5070666;28;20660;-84
2022/07/23 06:17:24;;;;;;;6.53;5.93;;;23.40;99.90;;;;;;5066164;28;20634;-85
2022/07/23 06:19:51;;;;;;;5.77;5.30;;;23.40;99.90;;;;;;5065693;28;20747;-85
2022/07/23 06:22:18;;;;;;;6.23;5.73;;;23.40;99.90;;;;;;5073274;28;21466;-85
2022/07/23 06:24:45;;;;;;;6.73;6.10;;;23.20;99.90;;;;;;5067272;28;20655;-84
2022/07/23 06:27:11;;;;;;;6.30;5.90;;;23.30;99.90;;;;;;5066523;28;21075;-84
2022/07/23 06:29:40;;;;;;;7.00;6.50;;;23.40;99.90;;;;;;5069358;28;20664;-84
2022/07/23 06:32:09;;;;;;;6.63;6.13;;;23.50;99.90;;;;;;5069416;28;20695;-85
2022/07/23 06:34:36;;;;;;;6.83;6.33;;;23.70;99.90;;;;;;5075873;28;20684;-85
2022/07/23 06:37:03;;;;;;;7.07;6.37;;;23.80;99.90;;;;;;5075512;28;20744;-84
2022/07/23 06:39:30;;;;;;;6.73;6.33;;;23.90;99.90;;;;;;5080766;28;20608;-84
2022/07/23 06:41:57;;;;;;;6.83;6.10;;;23.90;99.90;;;;;;5071617;28;20743;-84
2022/07/23 06:44:24;;;;;;;5.70;5.30;;;23.90;99.90;;;;;;5070311;28;20735;-83
2022/07/23 06:46:51;;;;;;;6.90;6.20;;;24.10;99.90;;;;;;5069788;28;20621;-83
2022/07/23 06:49:19;;;;;;;6.10;5.60;;;24.20;99.90;;;;;;5069242;28;21367;-83
2022/07/23 06:51:46;;;;;;;6.20;5.80;;;24.30;99.90;;;;;;5068655;28;20649;-84
2022/07/23 06:54:13;;;;;;;7.33;6.80;;;24.40;99.90;;;;;;5067826;28;20632;-84
2022/07/23 06:56:39;;;;;;;6.17;5.77;;;24.50;99.90;;;;;;5067186;28;21365;-84
2022/07/23 06:59:06;;;;;;;7.13;6.40;;;24.70;99.90;;;;;;5071648;28;20723;-85
2022/07/23 07:01:33;;;;;;;6.80;6.30;;;24.70;99.90;;;;;;5067104;28;20656;-85
2022/07/23 07:04:00;;;;;;;7.03;6.20;;;24.80;99.90;;;;;;5068961;28;20967;-85
2022/07/23 07:06:28;;;;;;;6.23;5.70;;;24.80;99.90;;;;;;5069496;28;20628;-85
2022/07/23 07:08:56;;;;;;;6.67;6.17;;;24.90;99.90;;;;;;5068475;28;20624;-84
2022/07/23 07:11:25;;;;;;;6.33;5.90;;;24.90;99.90;;;;;;5067639;28;20664;-84
2022/07/23 07:13:51;;;;;;;5.90;5.40;;;24.90;99.90;;;;;;5068482;28;21163;-85
2022/07/23 07:16:18;;;;;;;5.90;5.60;;;24.80;99.90;;;;;;5066280;28;20624;-84
2022/07/23 07:18:45;;;;;;;6.20;5.60;;;24.80;99.90;;;;;;5064474;28;20617;-84
2022/07/23 07:21:13;;;;;;;6.80;6.30;;;24.80;99.90;;;;;;5067902;28;20669;-84
2022/07/23 07:23:41;;;;;;;5.87;5.37;;;24.80;99.90;;;;;;5066628;28;20735;-85
2022/07/23 07:26:08;;;;;;;6.57;5.97;;;24.80;99.90;;;;;;5066182;28;20728;-85
2022/07/23 07:28:34;;;;;;;6.03;5.53;;;24.70;99.90;;;;;;5064317;28;20639;-85
2022/07/23 07:31:01;;;;;;;5.70;5.30;;;24.70;99.90;;;;;;5065268;28;20739;-84
2022/07/23 07:33:28;;;;;;;6.30;5.90;;;24.80;99.90;;;;;;5065906;28;20671;-84
2022/07/23 07:35:55;;;;;;;6.07;5.57;;;24.70;99.90;;;;;;5065081;28;20633;-84
2022/07/23 07:38:22;;;;;;;6.90;5.97;;;24.70;99.90;;;;;;5064479;28;20757;-84
2022/07/23 07:40:50;;;;;;;5.97;5.37;;;24.70;99.90;;;;;;5065676;28;20633;-84
2022/07/23 07:43:17;;;;;;;5.97;5.37;;;24.50;99.90;;;;;;5066841;28;20687;-84
2022/07/23 07:45:44;;;;;;;6.23;5.73;;;24.50;99.90;;;;;;5063000;28;21167;-84
2022/07/23 07:48:10;;;;;;;5.40;5.00;;;24.40;99.90;;;;;;5063685;28;20999;-84
2022/07/23 07:50:37;;;;;;;6.20;5.80;;;24.40;99.90;;;;;;5062398;28;21455;-83
2022/07/23 07:53:04;;;;;;;6.13;5.63;;;24.30;99.90;;;;;;5062641;28;20621;-83
2022/07/23 07:55:31;;;;;;;6.77;5.97;;;24.30;99.90;;;;;;5065712;28;20664;-84
2022/07/23 07:57:59;;;;;;;7.90;5.93;;;24.30;99.90;;;;;;5064006;28;20633;-83
2022/07/23 08:00:26;;;;;;;5.80;5.40;;;24.40;99.90;;;;;;5066660;28;20638;-83
2022/07/23 08:02:55;;;;;;;6.43;6.03;;;24.50;99.90;;;;;;5066882;28;20980;-83
2022/07/23 08:05:23;;;;;;;6.07;5.57;;;24.70;99.90;;;;;;5067893;28;20617;-83
2022/07/23 08:07:49;;;;;;;6.77;6.17;;;24.80;99.90;;;;;;5081392;28;20672;-83
2022/07/23 08:10:17;;;;;;;5.70;5.30;;;24.80;99.90;;;;;;5058450;28;20679;-83
2022/07/23 08:12:46;;;;;;;5.70;5.30;;;24.80;99.90;;;;;;5061501;28;20656;-83
2022/07/23 08:15:15;;;;;;;7.10;6.60;;;24.80;99.90;;;;;;5063702;28;20752;-83
2022/07/23 08:17:42;;;;;;;6.70;6.20;;;24.80;99.90;;;;;;5065525;28;20979;-83
2022/07/23 08:20:11;;;;;;;6.37;5.77;;;24.70;99.90;;;;;;5064700;28;20646;-84
2022/07/23 08:22:45;;;;;;;7.57;6.97;;;24.80;99.90;;;;;;5065700;28;20617;-84
2022/07/23 08:25:13;;;;;;;7.07;6.63;;;24.80;99.90;;;;;;5060983;28;20641;-83
2022/07/23 08:27:40;;;;;;;6.33;5.93;;;24.70;99.90;;;;;;5054039;28;20649;-84
2022/07/23 08:30:08;;;;;;;8.30;6.07;;;24.70;99.90;;;;;;5069872;28;20798;-84
2022/07/23 08:32:49;;;;;;;6.37;5.87;;;24.70;99.90;;;;;;5065493;28;20621;-83
2022/07/23 08:35:15;;;;;;;7.63;7.03;;;24.80;99.90;;;;;;5064630;28;20624;-84
2022/07/23 08:37:42;;;;;;;6.60;6.10;;;24.70;99.90;;;;;;5064971;28;20629;-84
2022/07/23 08:40:11;;;;;;;6.07;5.43;;;24.60;99.90;;;;;;5065781;28;20632;-84
2022/07/23 08:42:38;;;;;;;6.23;5.83;;;24.60;99.90;;;;;;5065939;28;20633;-84
2022/07/23 08:45:08;;;;;;;7.60;6.20;;;24.60;99.90;;;;;;5061818;28;20660;-83
2022/07/23 08:47:38;;;;;;;7.30;6.70;;;24.70;99.90;;;;;;5061096;28;20774;-83
2022/07/23 08:50:05;;;;;;;7.00;6.30;;;24.70;99.90;;;;;;5059426;28;20667;-84
2022/07/23 08:52:33;;;;;;;7.30;6.70;;;24.80;99.90;;;;;;5061692;28;20740;-83
2022/07/23 08:55:00;;;;;;;6.70;6.10;;;24.90;99.90;;;;;;5058014;28;20664;-84
2022/07/23 08:57:27;;;;;;;6.60;6.10;;;25.10;99.90;;;;;;5066284;28;20695;-84
2022/07/23 08:59:54;;;;;;;6.80;6.30;;;25.20;99.90;;;;;;5066864;28;20695;-84
2022/07/23 09:02:21;;;;;;;7.67;6.87;;;25.30;99.90;;;;;;5068424;28;20649;-84
2022/07/23 09:04:49;;;;;;;6.90;6.50;;;25.40;99.90;;;;;;5055989;28;20677;-84
2022/07/23 09:07:16;;;;;;;6.40;5.90;;;25.40;99.90;;;;;;5045684;28;20657;-83
2022/07/23 09:09:43;;;;;;;6.33;5.70;;;25.40;99.90;;;;;;5070187;28;20630;-85
2022/07/23 09:12:11;;;;;;;6.33;5.73;;;25.40;99.90;;;;;;5063603;28;20635;-83
2022/07/23 09:14:40;;;;;;;6.70;6.23;;;25.60;99.90;;;;;;5063519;28;20953;-84
2022/07/23 09:17:11;;;;;;;6.63;6.23;;;25.80;99.90;;;;;;5059952;28;20962;-84
2022/07/23 09:19:38;;;;;;;7.13;6.60;;;25.90;99.90;;;;;;5057068;28;20625;-84
2022/07/23 09:22:20;;;;;;;6.50;6.10;;;26.00;98.20;;;;;;5065400;28;20633;-84
2022/07/23 09:25:09;;;;;;;7.63;7.03;;;26.10;97.30;;;;;;5061906;28;20676;-84
2022/07/23 09:27:54;;;;;;;6.50;6.10;;;25.90;97.30;;;;;;5063646;28;20708;-83
2022/07/23 09:30:22;;;;;;;6.27;5.73;;;25.90;97.90;;;;;;5069259;28;20721;-83
2022/07/23 09:33:06;;;;;;;6.80;6.30;;;26.10;97.80;;;;;;5065650;28;20636;-84
2022/07/23 09:35:51;;;;;;;5.90;5.50;;;26.20;96.70;;;;;;5066600;28;20579;-84
2022/07/23 09:38:20;;;;;;;5.90;5.50;;;26.40;96.40;;;;;;5062064;28;20644;-84
2022/07/23 09:41:05;;;;;;;7.40;6.80;;;26.60;95.80;;;;;;5076451;28;20609;-84
2022/07/23 09:43:32;;;;;;;6.33;5.93;;;26.80;95.70;;;;;;5067716;28;20636;-83
2022/07/23 09:46:18;;;;;;;6.33;5.83;;;26.90;94.10;;;;;;5065896;28;20629;-84
2022/07/23 09:48:45;;;;;;;6.80;6.20;;;27.00;93.90;;;;;;5066825;28;20636;-84
2022/07/23 09:51:12;;;;;;;6.23;5.73;;;27.20;93.60;;;;;;5069851;28;20673;-84
2022/07/23 09:53:40;;;;;;;5.50;5.03;;;27.30;92.00;;;;;;5061475;28;21028;-84
2022/07/23 09:56:08;;;;;;;5.70;5.30;;;27.30;90.20;;;;;;5068513;28;20628;-84
2022/07/23 09:58:44;;;;;;;5.70;5.30;;;27.40;90.00;;;;;;5061477;28;20637;-84
2022/07/23 10:01:11;;;;;;;6.80;6.27;;;27.50;90.20;;;;;;5061316;28;21028;-84
2022/07/23 10:03:40;;;;;;;5.47;5.00;;;27.60;89.00;;;;;;5067515;28;20654;-84
2022/07/23 10:06:08;;;;;;;5.47;5.07;;;27.80;87.30;;;;;;5062750;28;20637;-84
2022/07/23 10:08:36;;;;;;;7.00;6.40;;;27.90;86.40;;;;;;5068052;28;21052;-83
2022/07/23 10:11:04;;;;;;;5.07;4.77;;;27.90;86.40;;;;;;5065452;28;20667;-84
2022/07/23 10:16:16;;;;;;;5.33;4.93;;;27.90;83.20;;;;;;5063423;28;21179;-84
2022/07/23 10:18:43;;;;;;;6.73;5.90;;;28.20;83.70;;;;;;5062394;28;20629;-84
2022/07/23 10:21:11;;;;;;;5.87;5.37;;;28.40;84.20;;;;;;5064907;28;20620;-84
2022/07/23 10:23:47;;;;;;;5.90;5.50;;;28.70;83.60;;;;;;5061170;28;20644;-84
2022/07/23 10:26:23;;;;;;;5.83;5.47;;;28.70;82.80;;;;;;5066710;28;20716;-84
2022/07/23 10:29:11;;;;;;;5.90;5.50;;;28.70;81.60;;;;;;5066489;28;20638;-84
2022/07/23 10:31:48;;;;;;;5.67;5.27;;;28.70;81.00;;;;;;5065713;28;20669;-84
2022/07/23 10:34:35;;;;;;;6.23;5.73;;;28.80;82.20;;;;;;5064712;28;20664;-84
2022/07/23 10:37:12;;;;;;;6.10;5.70;;;29.00;80.60;;;;;;5067312;28;20623;-84
2022/07/23 10:39:39;;;;;;;5.37;4.97;;;29.10;80.10;;;;;;5060856;28;20628;-84
2022/07/23 10:42:12;;;;;;;5.70;5.30;;;29.30;80.30;;;;;;5062367;28;20629;-84
2022/07/23 10:44:42;;;;;;;6.30;5.50;;;29.40;78.00;;;;;;5061717;28;21014;-83
2022/07/23 10:47:24;;;;;;;6.37;5.97;;;29.40;77.90;;;;;;5064045;28;20678;-83
2022/07/23 10:49:51;;;;;;;5.80;5.40;;;29.30;77.00;;;;;;5066913;28;20613;-83
2022/07/23 10:52:27;;;;;;;6.30;5.70;;;29.30;76.80;;;;;;5065737;28;20665;-83
2022/07/23 10:54:57;;;;;;;5.83;5.43;;;29.30;76.90;;;;;;5070030;28;21457;-83
2022/07/23 10:57:26;;;;;;;5.70;5.30;;;29.40;77.40;;;;;;5067859;28;20645;-83
2022/07/23 11:00:28;;;;;;;5.90;5.50;;;29.60;77.10;;;;;;5063543;28;20621;-84
2022/07/23 11:02:57;;;;;;;6.30;5.90;;;29.90;77.30;;;;;;5067139;28;20632;-83
2022/07/23 11:05:26;;;;;;;6.10;5.53;;;30.20;76.30;;;;;;5063625;28;20643;-83
2022/07/23 11:08:17;;;;;;;5.83;5.53;;;30.50;74.10;;;;;;5063211;28;20676;-83
2022/07/23 11:10:56;;;;;;;6.27;5.87;;;30.70;73.20;;;;;;5060208;28;20660;-83
2022/07/23 11:13:42;;;;;;;6.03;5.63;;;30.80;72.80;;;;;;5068131;28;20660;-83
2022/07/23 11:16:20;;;;;;;6.20;5.80;;;31.10;72.80;;;;;;5061622;28;21211;-83
2022/07/23 11:19:06;;;;;;;6.30;5.80;;;31.20;70.90;;;;;;5064066;28;20620;-83
2022/07/23 11:21:47;;;;;;;6.13;5.83;;;31.30;70.10;;;;;;5063394;28;20609;-82
2022/07/23 11:24:22;;;;;;;6.73;6.23;;;31.40;69.10;;;;;;5062293;28;20685;-84
2022/07/23 11:26:53;;;;;;;6.20;5.70;;;31.60;68.20;;;;;;5064346;28;20740;-85
2022/07/23 11:29:40;;;;;;;6.80;6.20;;;31.80;67.80;;;;;;5064798;28;20633;-83
2022/07/23 11:32:08;;;;;;;6.23;5.93;;;31.90;66.90;;;;;;5061697;28;20910;-82
2022/07/23 11:34:37;;;;;;;7.23;6.77;;;32.00;66.60;;;;;;5074574;28;20648;-83
2022/07/23 11:37:05;;;;;;;7.60;7.10;;;32.30;67.30;;;;;;5067200;28;20643;-82
2022/07/23 11:39:33;;;;;;;6.03;5.63;;;32.50;65.20;;;;;;5057361;28;20724;-83
2022/07/23 11:42:01;;;;;;;6.40;5.93;;;32.80;65.90;;;;;;5071285;28;21229;-83
2022/07/23 11:44:29;;;;;;;7.20;6.70;;;33.20;63.70;;;;;;5069545;28;20643;-83
2022/07/23 11:46:59;;;;;;;7.30;6.80;;;33.40;63.60;;;;;;5066379;28;20620;-83
2022/07/23 11:49:26;;;;;;;7.30;6.90;;;33.80;61.70;;;;;;5067164;28;20675;-83
2022/07/23 11:52:07;;;;;;;7.33;6.93;;;33.70;60.60;;;;;;5065539;28;20664;-83
2022/07/23 11:54:35;;;;;;;6.57;6.10;;;33.90;61.60;;;;;;5053696;28;20663;-83
2022/07/23 11:57:04;;;;;;;6.77;6.23;;;34.00;60.80;;;;;;5057036;28;20624;-83
2022/07/23 11:59:35;;;;;;;8.33;7.93;;;34.10;60.40;;;;;;5071037;28;20657;-83
2022/07/23 12:02:06;;;;;;;5.93;5.53;;;34.20;60.40;;;;;;5063648;28;20628;-83
2022/07/23 12:04:39;;;;;;;6.33;5.93;;;34.40;59.80;;;;;;5070688;28;20647;-83
2022/07/23 12:07:22;;;;;;;5.90;5.60;;;34.70;59.70;;;;;;5067048;28;20632;-83
2022/07/23 12:09:49;;;;;;;5.67;5.37;;;35.10;58.30;;;;;;5066420;28;20660;-83
2022/07/23 12:12:16;;;;;;;5.90;5.50;;;35.30;57.20;;;;;;5061929;28;20692;-84
2022/07/23 12:14:49;;;;;;;5.67;5.27;;;35.50;56.70;;;;;;5067160;28;21215;-83
2022/07/23 12:17:17;;;;;;;5.63;5.33;;;35.80;55.80;;;;;;5070150;28;20691;-83
2022/07/23 12:19:45;;;;;;;5.37;4.87;;;35.90;54.60;;;;;;5071915;28;20982;-83
2022/07/23 12:22:14;;;;;;;6.13;5.73;;;35.80;54.00;;;;;;5061252;28;20633;-83
2022/07/23 12:24:58;;;;;;;5.93;5.43;;;36.00;55.20;;;;;;5063068;28;20260;-83
2022/07/23 12:27:25;;;;;;;5.93;5.40;;;36.00;53.50;;;;;;5052983;28;20636;-83
2022/07/23 12:29:52;;;;;;;5.63;5.33;;;36.00;53.30;;;;;;5066247;28;20211;-83
2022/07/23 12:32:27;;;;;;;5.60;5.30;;;36.30;53.40;;;;;;5060959;28;20226;-83
2022/07/23 12:35:05;;;;;;;6.80;6.40;;;36.40;53.80;;;;;;5072134;28;20221;-83
2022/07/23 12:37:34;;;;;;;6.07;5.60;;;36.80;53.30;;;;;;5066112;28;20230;-83
2022/07/23 12:40:19;;;;;;;6.30;5.90;;;36.70;52.20;;;;;;5058625;28;20199;-83
2022/07/23 12:42:47;;;;;;;6.50;6.10;;;36.20;51.90;;;;;;5063803;28;20273;-83
2022/07/23 12:45:14;;;;;;;6.23;5.83;;;35.90;52.70;;;;;;5061555;28;20677;-83
2022/07/23 12:48:01;;;;;;;6.07;5.47;;;35.90;51.80;;;;;;5057396;28;20202;-83
2022/07/23 12:50:51;;;;;;;6.53;6.13;;;36.00;52.40;;;;;;5061511;28;20202;-83
2022/07/23 12:53:20;;;;;;;7.83;6.73;;;36.30;53.20;;;;;;5056266;28;20219;-83
2022/07/23 12:55:48;;;;;;;6.07;5.67;;;36.60;52.80;;;;;;5069548;28;20197;-83
2022/07/23 12:58:17;;;;;;;6.47;6.00;;;36.80;51.90;;;;;;5065874;28;20221;-83
2022/07/23 13:00:55;;;;;;;6.60;6.20;;;36.80;51.90;;;;;;5066516;28;20194;-83